createdAt,value
2022-12-17T00:02:42.327Z,66.03
2022-12-17T00:05:27.632Z,64.70
2022-12-17T00:08:16.890Z,65.47
2022-12-17T00:11:02.390Z,54.13
2022-12-17T00:13:47.892Z,52.95
2022-12-17T00:16:35.011Z,65.60
2022-12-17T00:19:20.678Z,54.80
2022-12-17T00:22:06.437Z,62.63
2022-12-17T00:24:51.788Z,49.75
2022-12-17T00:27:37.190Z,56.08
2022-12-17T00:30:23.340Z,54.90
2022-12-17T00:33:07.580Z,52.30
2022-12-17T00:35:53.078Z,50.83
2022-12-17T00:38:38.892Z,53.95
2022-12-17T00:41:24.417Z,50.88
2022-12-17T00:44:10.100Z,51.35
2022-12-17T00:46:55.762Z,50.90
2022-12-17T00:49:42.503Z,52.05
2022-12-17T00:52:28.246Z,42.97
2022-12-17T00:55:13.813Z,44.28
2022-12-17T00:57:59.311Z,47.33
2022-12-17T01:00:44.721Z,43.85
2022-12-17T01:03:31.609Z,46.38
2022-12-17T01:06:23.500Z,48.80
2022-12-17T01:09:09.258Z,47.97
2022-12-17T01:11:56.522Z,45.72
2022-12-17T01:14:42.771Z,44.20
2022-12-17T01:17:28.408Z,48.80
2022-12-17T01:20:13.798Z,60.10
2022-12-17T01:23:00.750Z,45.63
2022-12-17T01:25:46.401Z,51.63
2022-12-17T01:28:31.832Z,45.13
2022-12-17T01:31:17.394Z,48.50
2022-12-17T01:34:02.567Z,48.90
2022-12-17T01:36:53.291Z,47.42
2022-12-17T01:39:40.261Z,51.58
2022-12-17T01:42:29.990Z,48.47
2022-12-17T01:45:16.156Z,51.92
2022-12-17T01:48:04.902Z,46.03
2022-12-17T01:50:53.584Z,44.65
2022-12-17T01:53:42.711Z,54.25
2022-12-17T01:56:32.575Z,42.30
2022-12-17T01:59:18.218Z,42.20
2022-12-17T02:02:03.831Z,52.92
2022-12-17T02:04:50.067Z,45.40
2022-12-17T02:07:46.977Z,44.83
2022-12-17T02:10:42.585Z,50.33
2022-12-17T02:13:34.792Z,47.05
2022-12-17T02:16:27.251Z,40.90
2022-12-17T02:19:18.653Z,34.90
2022-12-17T02:22:08.604Z,37.08
2022-12-17T02:25:05.679Z,38.15
2022-12-17T02:27:49.768Z,41.70
2022-12-17T02:30:35.915Z,37.75
2022-12-17T02:33:22.238Z,41.40
2022-12-17T02:36:12.909Z,40.60
2022-12-17T02:38:58.379Z,41.17
2022-12-17T02:41:46.202Z,41.35
2022-12-17T02:44:36.284Z,40.85
2022-12-17T02:47:24.912Z,40.17
2022-12-17T02:50:10.929Z,34.17
2022-12-17T02:53:00.888Z,34.33
2022-12-17T02:55:46.342Z,43.90
2022-12-17T02:58:20.786Z,45.35
2022-12-17T03:01:07.576Z,37.92
2022-12-17T03:03:53.760Z,35.58
2022-12-17T03:06:39.349Z,37.42
2022-12-17T03:09:25.034Z,33.70
2022-12-17T03:12:10.360Z,37.53
2022-12-17T03:14:56.146Z,41.05
2022-12-17T03:17:44.753Z,38.42
2022-12-17T03:20:30.237Z,35.50
2022-12-17T03:23:21.225Z,38.17
2022-12-17T03:26:06.721Z,46.38
2022-12-17T03:28:52.009Z,32.75
2022-12-17T03:31:38.867Z,36.67
2022-12-17T03:34:26.154Z,36.60
2022-12-17T03:37:11.766Z,39.58
2022-12-17T03:39:57.429Z,39.88
2022-12-17T03:42:42.898Z,34.78
2022-12-17T03:45:29.710Z,39.55
2022-12-17T03:48:23.805Z,35.83
2022-12-17T03:51:11.543Z,38.65
2022-12-17T03:53:56.880Z,33.60
2022-12-17T03:56:42.572Z,39.60
2022-12-17T03:59:28.645Z,38.35
2022-12-17T04:02:14.412Z,33.38
2022-12-17T04:04:59.859Z,36.60
2022-12-17T04:07:46.635Z,34.08
2022-12-17T04:10:32.119Z,37.90
2022-12-17T04:13:17.672Z,41.50
2022-12-17T04:16:02.945Z,34.83
2022-12-17T04:18:48.251Z,35.80
2022-12-17T04:21:33.833Z,38.50
2022-12-17T04:24:20.418Z,34.13
2022-12-17T04:27:06.118Z,40.75
2022-12-17T04:29:51.553Z,31.90
2022-12-17T04:32:37.155Z,33.92
2022-12-17T04:35:22.766Z,31.02
2022-12-17T04:38:08.816Z,33.97
2022-12-17T04:40:56.686Z,38.05
2022-12-17T04:43:42.091Z,38.13
2022-12-17T04:46:27.298Z,35.47
2022-12-17T04:49:13.058Z,39.85
2022-12-17T04:51:58.490Z,38.65
2022-12-17T04:54:49.248Z,40.05
2022-12-17T04:57:36.278Z,42.25
2022-12-17T05:00:22.231Z,39.58
2022-12-17T05:03:07.821Z,36.25
2022-12-17T05:05:53.303Z,39.35
2022-12-17T05:08:41.578Z,31.35
2022-12-17T05:11:27.057Z,43.42
2022-12-17T05:14:13.812Z,37.47
2022-12-17T05:16:59.281Z,43.40
2022-12-17T05:19:53.128Z,34.88
2022-12-17T05:22:38.740Z,30.63
2022-12-17T05:25:25.307Z,32.70
2022-12-17T05:28:10.912Z,38.83
2022-12-17T05:30:57.517Z,32.33
2022-12-17T05:33:43.260Z,33.72
2022-12-17T05:36:27.890Z,37.30
2022-12-17T05:39:13.826Z,37.63
2022-12-17T05:41:59.244Z,38.33
2022-12-17T05:44:44.917Z,33.65
2022-12-17T05:47:31.839Z,33.72
2022-12-17T05:50:17.272Z,39.72
2022-12-17T05:53:02.798Z,40.72
2022-12-17T05:55:48.362Z,34.05
2022-12-17T05:58:34.789Z,36.28
2022-12-17T06:01:21.875Z,33.50
2022-12-17T06:04:08.803Z,30.58
2022-12-17T06:06:54.226Z,38.10
2022-12-17T06:09:39.852Z,47.83
2022-12-17T06:12:25.514Z,38.13
2022-12-17T06:15:11.066Z,37.60
2022-12-17T06:17:56.647Z,39.65
2022-12-17T06:20:43.529Z,40.55
2022-12-17T06:23:29.940Z,45.30
2022-12-17T06:26:16.399Z,39.08
2022-12-17T06:29:02.319Z,44.60
2022-12-17T06:31:47.810Z,38.72
2022-12-17T06:34:33.424Z,37.95
2022-12-17T06:37:22.280Z,46.25
2022-12-17T06:40:08.023Z,39.78
2022-12-17T06:42:53.615Z,39.53
2022-12-17T06:45:39.259Z,42.45
2022-12-17T06:48:26.402Z,41.60
2022-12-17T06:51:12.727Z,41.47
2022-12-17T06:54:00.539Z,44.50
2022-12-17T06:56:46.625Z,46.33
2022-12-17T06:59:32.222Z,44.10
2022-12-17T07:02:18.156Z,43.35
2022-12-17T07:05:03.941Z,40.78
2022-12-17T07:07:49.368Z,41.35
2022-12-17T07:10:35.994Z,36.33
2022-12-17T07:13:25.049Z,36.10
2022-12-17T07:16:10.669Z,37.03
2022-12-17T07:18:56.751Z,40.63
2022-12-17T07:21:42.136Z,43.42
2022-12-17T07:24:28.191Z,37.67
2022-12-17T07:27:15.150Z,39.80
2022-12-17T07:30:00.698Z,37.50
2022-12-17T07:32:46.320Z,34.83
2022-12-17T07:35:31.959Z,35.58
2022-12-17T07:38:17.895Z,41.78
2022-12-17T07:41:04.104Z,33.97
2022-12-17T07:43:53.200Z,36.85
2022-12-17T07:46:39.574Z,39.22
2022-12-17T07:49:26.166Z,33.28
2022-12-17T07:52:11.824Z,36.58
2022-12-17T07:54:57.289Z,36.03
2022-12-17T07:57:42.931Z,28.15
2022-12-17T08:00:31.671Z,31.15
2022-12-17T08:03:17.821Z,30.90
2022-12-17T08:06:03.712Z,36.53
2022-12-17T08:08:48.822Z,34.33
2022-12-17T08:11:34.375Z,30.33
2022-12-17T08:14:20.009Z,31.85
2022-12-17T08:17:06.727Z,32.40
2022-12-17T08:19:57.454Z,34.60
2022-12-17T08:22:51.331Z,37.25
2022-12-17T08:25:36.947Z,30.40
2022-12-17T08:28:51.880Z,27.88
2022-12-17T08:31:30.094Z,31.17
2022-12-17T08:34:16.941Z,30.48
2022-12-17T08:37:02.657Z,27.20
2022-12-17T08:39:48.115Z,31.08
2022-12-17T08:42:33.661Z,21.70
2022-12-17T08:45:19.277Z,24.13
2022-12-17T08:48:04.748Z,25.70
2022-12-17T08:50:51.563Z,28.52
2022-12-17T08:53:37.339Z,26.10
2022-12-17T08:56:23.312Z,34.55
2022-12-17T08:59:09.040Z,27.23
2022-12-17T09:01:54.695Z,24.13
2022-12-17T09:04:40.162Z,27.20
2022-12-17T09:07:26.767Z,25.27
2022-12-17T09:10:12.043Z,27.00
2022-12-17T09:13:04.233Z,24.80
2022-12-17T09:15:52.255Z,19.08
2022-12-17T09:18:37.997Z,26.42
2022-12-17T09:21:24.140Z,19.30
2022-12-17T09:24:12.207Z,25.15
2022-12-17T09:26:57.718Z,23.17
2022-12-17T09:29:43.383Z,26.38
2022-12-17T09:32:29.032Z,22.08
2022-12-17T09:35:29.068Z,18.27
2022-12-17T09:38:15.913Z,18.73
2022-12-17T09:41:07.429Z,24.13
2022-12-17T09:44:02.700Z,20.30
2022-12-17T09:46:53.759Z,21.98
2022-12-17T09:49:39.014Z,19.77
2022-12-17T09:52:37.614Z,21.73
2022-12-17T09:55:34.042Z,16.80
2022-12-17T09:58:21.886Z,19.40
2022-12-17T10:01:04.533Z,16.40
2022-12-17T10:03:54.042Z,17.40
2022-12-17T10:06:45.792Z,16.90
2022-12-17T10:09:33.837Z,16.75
2022-12-17T10:12:29.369Z,19.95
2022-12-17T10:15:16.163Z,20.58
2022-12-17T10:18:01.633Z,18.15
2022-12-17T10:20:52.331Z,19.45
2022-12-17T10:23:48.896Z,20.30
2022-12-17T10:26:37.008Z,20.95
2022-12-17T10:29:24.432Z,18.90
2022-12-17T10:32:11.772Z,17.38
2022-12-17T10:35:04.780Z,16.98
2022-12-17T10:37:53.522Z,19.08
2022-12-17T10:40:44.160Z,20.15
2022-12-17T10:43:43.646Z,20.63
2022-12-17T10:46:29.358Z,25.30
2022-12-17T10:49:30.160Z,23.38
2022-12-17T10:52:20.921Z,23.15
2022-12-17T10:55:19.223Z,24.77
2022-12-17T10:58:06.745Z,21.10
2022-12-17T11:00:54.752Z,21.33
2022-12-17T11:03:49.750Z,21.52
2022-12-17T11:06:42.927Z,19.00
2022-12-17T11:09:38.685Z,20.20
2022-12-17T11:12:30.882Z,21.27
2022-12-17T11:15:22.854Z,25.55
2022-12-17T11:18:11.495Z,23.67
2022-12-17T11:21:06.492Z,21.23
2022-12-17T11:24:00.369Z,21.05
2022-12-17T11:26:49.401Z,21.15
2022-12-17T11:29:34.815Z,24.33
2022-12-17T11:32:37.892Z,21.25
2022-12-17T11:35:32.336Z,24.98
2022-12-17T11:38:31.373Z,24.63
2022-12-17T11:41:27.025Z,22.60
2022-12-17T11:44:21.697Z,20.17
2022-12-17T11:47:12.871Z,21.90
2022-12-17T11:50:07.615Z,27.70
2022-12-17T11:53:00.534Z,25.13
2022-12-17T11:55:59.706Z,28.00
2022-12-17T11:58:52.444Z,23.15
2022-12-17T12:01:45.297Z,24.52
2022-12-17T12:04:43.718Z,23.10
2022-12-17T12:07:38.515Z,22.27
2022-12-17T12:10:30.913Z,22.63
2022-12-17T12:13:26.053Z,25.80
2022-12-17T12:16:23.121Z,23.73
2022-12-17T12:19:19.026Z,23.37
2022-12-17T12:22:16.054Z,24.53
2022-12-17T12:25:16.032Z,24.57
2022-12-17T12:28:11.957Z,20.83
2022-12-17T12:31:05.609Z,19.05
2022-12-17T12:34:01.275Z,21.65
2022-12-17T12:36:46.823Z,21.70
2022-12-17T12:39:38.861Z,21.15
2022-12-17T12:42:30.884Z,21.13
2022-12-17T12:45:21.101Z,16.87
2022-12-17T12:48:12.466Z,19.05
2022-12-17T12:51:07.191Z,19.73
2022-12-17T12:53:52.898Z,19.90
2022-12-17T12:56:53.576Z,22.45
2022-12-17T12:59:46.787Z,18.45
2022-12-17T13:02:46.417Z,19.25
2022-12-17T13:05:34.774Z,17.50
2022-12-17T13:08:05.907Z,20.02
2022-12-17T13:10:34.487Z,24.20
2022-12-17T13:13:13.570Z,22.30
2022-12-17T13:15:46.972Z,20.73
2022-12-17T13:18:22.023Z,20.83
2022-12-17T13:21:00.483Z,20.85
2022-12-17T13:23:33.729Z,25.67
2022-12-17T13:26:23.151Z,19.73
2022-12-17T13:29:03.939Z,22.40
2022-12-17T13:31:43.040Z,18.17
2022-12-17T13:34:17.949Z,21.70
2022-12-17T13:36:53.495Z,18.30
2022-12-17T13:39:35.418Z,18.92
2022-12-17T13:42:04.574Z,22.15
2022-12-17T13:44:39.595Z,20.23
2022-12-17T13:47:21.424Z,16.23
2022-12-17T13:50:24.585Z,24.77
2022-12-17T13:52:40.820Z,22.25
2022-12-17T13:55:17.729Z,22.20
2022-12-17T13:57:47.489Z,20.27
2022-12-17T14:00:21.831Z,25.05
2022-12-17T14:02:50.173Z,20.08
2022-12-17T14:05:25.411Z,21.08
2022-12-17T14:07:56.610Z,22.73
2022-12-17T14:10:26.206Z,23.55
2022-12-17T14:13:04.024Z,20.45
2022-12-17T14:15:32.074Z,26.50
2022-12-17T14:18:00.707Z,23.00
2022-12-17T14:20:31.807Z,18.90
2022-12-17T14:23:02.601Z,23.95
2022-12-17T14:25:35.502Z,21.30
2022-12-17T14:28:05.508Z,21.75
2022-12-17T14:30:46.221Z,25.17
2022-12-17T14:33:31.176Z,20.17
2022-12-17T14:36:00.928Z,22.55
2022-12-17T14:38:38.337Z,21.60
2022-12-17T14:41:27.107Z,20.27
2022-12-17T14:43:59.807Z,19.83
2022-12-17T14:46:28.823Z,23.27
2022-12-17T14:49:04.103Z,21.70
2022-12-17T14:51:35.097Z,22.50
2022-12-17T14:54:21.943Z,19.63
2022-12-17T14:56:51.400Z,27.13
2022-12-17T14:59:24.954Z,22.50
2022-12-17T15:01:56.088Z,23.65
2022-12-17T15:04:24.948Z,21.52
2022-12-17T15:06:55.701Z,26.02
2022-12-17T15:09:23.719Z,23.63
2022-12-17T15:11:53.017Z,21.67
2022-12-17T15:14:20.913Z,24.73
2022-12-17T15:16:48.840Z,20.35
2022-12-17T15:19:17.090Z,20.88
2022-12-17T15:21:45.019Z,24.10
2022-12-17T15:24:16.505Z,21.77
2022-12-17T15:26:44.417Z,23.45
2022-12-17T15:29:13.746Z,23.00
2022-12-17T15:31:41.823Z,22.10
2022-12-17T15:34:12.168Z,26.58
2022-12-17T15:36:40.061Z,25.13
2022-12-17T15:39:09.416Z,21.63
2022-12-17T15:41:56.010Z,20.95
2022-12-17T15:44:25.262Z,20.17
2022-12-17T15:46:53.396Z,23.42
2022-12-17T15:49:21.278Z,24.08
2022-12-17T15:51:49.253Z,20.23
2022-12-17T15:54:17.344Z,20.15
2022-12-17T15:56:54.396Z,20.65
2022-12-17T15:59:22.741Z,23.20
2022-12-17T16:01:52.117Z,23.05
2022-12-17T16:04:24.958Z,20.10
2022-12-17T16:06:53.276Z,18.95
2022-12-17T16:09:24.303Z,22.38
2022-12-17T16:11:54.290Z,22.02
2022-12-17T16:14:22.447Z,19.27
2022-12-17T16:16:52.376Z,22.45
2022-12-17T16:19:23.327Z,20.27
2022-12-17T16:21:51.481Z,17.55
2022-12-17T16:24:19.578Z,22.35
2022-12-17T16:26:47.572Z,20.25
2022-12-17T16:29:15.678Z,20.02
2022-12-17T16:31:43.763Z,21.30
2022-12-17T16:34:14.194Z,20.80
2022-12-17T16:36:42.234Z,20.10
2022-12-17T16:39:16.363Z,20.70
2022-12-17T16:41:44.469Z,16.92
2022-12-17T16:44:12.957Z,21.50
2022-12-17T16:46:42.957Z,16.95
2022-12-17T16:49:14.245Z,17.73
2022-12-17T16:51:42.146Z,18.73
2022-12-17T16:54:14.859Z,23.00
2022-12-17T16:56:43.491Z,26.80
2022-12-17T16:59:13.123Z,17.38
2022-12-17T17:01:44.759Z,17.15
2022-12-17T17:04:15.590Z,19.02
2022-12-17T17:06:45.922Z,21.10
2022-12-17T17:09:14.932Z,20.80
2022-12-17T17:11:48.170Z,18.95
2022-12-17T17:14:17.836Z,21.75
2022-12-17T17:16:45.791Z,23.17
2022-12-17T17:19:15.142Z,23.23
2022-12-17T17:21:48.644Z,18.17
2022-12-17T17:24:21.728Z,26.15
2022-12-17T17:26:51.018Z,21.83
2022-12-17T17:29:19.393Z,19.70
2022-12-17T17:34:36.949Z,17.95
2022-12-17T17:37:04.811Z,19.73
2022-12-17T17:39:34.193Z,22.67
2022-12-17T17:42:02.544Z,23.15
2022-12-17T17:44:33.539Z,19.48
2022-12-17T17:47:01.827Z,22.17
2022-12-17T17:49:29.879Z,22.85
2022-12-17T17:52:14.602Z,23.83
2022-12-17T17:54:42.579Z,22.95
2022-12-17T17:57:10.912Z,22.50
2022-12-17T17:59:39.470Z,27.02
2022-12-17T18:02:08.942Z,24.80
2022-12-17T18:04:37.458Z,22.60
2022-12-17T18:07:24.717Z,26.17
2022-12-17T18:09:53.380Z,21.27
2022-12-17T18:12:39.004Z,22.63
2022-12-17T18:15:17.362Z,30.83
2022-12-17T18:17:47.463Z,21.02
2022-12-17T18:20:15.968Z,24.77
2022-12-17T18:22:46.769Z,27.02
2022-12-17T18:25:15.395Z,26.98
2022-12-17T18:27:43.558Z,24.80
2022-12-17T18:30:12.420Z,24.92
2022-12-17T18:32:40.376Z,23.55
2022-12-17T18:35:09.257Z,28.98
2022-12-17T18:37:37.603Z,22.92
2022-12-17T18:40:08.286Z,23.30
2022-12-17T18:42:54.284Z,24.48
2022-12-17T18:45:22.319Z,23.88
2022-12-17T18:47:51.633Z,25.27
2022-12-17T18:50:19.753Z,22.90
2022-12-17T18:52:47.651Z,20.83
2022-12-17T18:55:17.357Z,20.80
2022-12-17T18:57:45.315Z,24.08
2022-12-17T19:00:14.826Z,20.92
2022-12-17T19:02:42.947Z,25.13
2022-12-17T19:05:10.997Z,24.20
2022-12-17T19:07:38.904Z,21.48
2022-12-17T19:10:07.797Z,23.05
2022-12-17T19:12:36.969Z,18.92
2022-12-17T19:15:05.397Z,22.90
2022-12-17T19:17:33.346Z,24.52
2022-12-17T19:20:01.232Z,22.20
2022-12-17T19:22:29.182Z,22.08
2022-12-17T19:24:57.027Z,22.80
2022-12-17T19:27:25.354Z,23.38
2022-12-17T19:29:56.403Z,23.70
2022-12-17T19:32:24.738Z,24.30
2022-12-17T19:34:52.620Z,26.45
2022-12-17T19:37:20.504Z,25.95
2022-12-17T19:39:48.671Z,24.65
2022-12-17T19:42:25.368Z,24.00
2022-12-17T19:44:55.019Z,24.30
2022-12-17T19:47:24.048Z,25.30
2022-12-17T19:49:51.952Z,22.88
2022-12-17T19:52:19.871Z,23.92
2022-12-17T19:54:47.748Z,21.35
2022-12-17T19:57:15.657Z,25.40
2022-12-17T19:59:43.525Z,19.17
2022-12-17T20:02:12.935Z,23.60
2022-12-17T20:04:40.958Z,25.73
2022-12-17T20:07:08.916Z,23.65
2022-12-17T20:09:36.907Z,26.65
2022-12-17T20:12:05.105Z,22.92
2022-12-17T20:14:34.223Z,25.70
2022-12-17T20:17:02.742Z,26.95
2022-12-17T20:19:34.728Z,23.85
2022-12-17T20:22:04.229Z,23.92
2022-12-17T20:24:32.457Z,27.17
2022-12-17T20:27:01.230Z,21.77
2022-12-17T20:29:29.530Z,21.58
2022-12-17T20:31:57.640Z,20.55
2022-12-17T20:34:26.175Z,23.38
2022-12-17T20:36:55.750Z,20.30
2022-12-17T20:39:27.794Z,21.23
2022-12-17T20:41:56.824Z,19.80
2022-12-17T20:44:24.866Z,22.10
2022-12-17T20:46:52.910Z,20.08
2022-12-17T20:49:20.836Z,23.85
2022-12-17T20:51:48.803Z,21.83
2022-12-17T20:54:18.060Z,21.73
2022-12-17T20:56:45.996Z,20.90
2022-12-17T20:59:16.691Z,24.05
2022-12-17T21:01:45.273Z,18.85
2022-12-17T21:04:14.746Z,20.35
2022-12-17T21:06:44.952Z,22.70
2022-12-17T21:09:14.355Z,20.55
2022-12-17T21:11:43.679Z,21.88
2022-12-17T21:14:14.262Z,22.90
2022-12-17T21:16:43.598Z,20.23
2022-12-17T21:19:15.156Z,22.92
2022-12-17T21:21:43.096Z,19.73
2022-12-17T21:24:11.756Z,21.15
2022-12-17T21:26:42.142Z,22.17
2022-12-17T21:29:11.857Z,23.67
2022-12-17T21:31:41.478Z,20.83
2022-12-17T21:34:12.544Z,20.75
2022-12-17T21:36:40.686Z,24.17
2022-12-17T21:39:09.908Z,24.55
2022-12-17T21:41:42.075Z,21.00
2022-12-17T21:44:15.433Z,23.85
2022-12-17T21:46:48.511Z,22.70
2022-12-17T21:49:18.827Z,20.60
2022-12-17T21:51:47.021Z,23.55
2022-12-17T21:54:19.347Z,18.98
2022-12-17T21:56:48.300Z,21.33
2022-12-17T21:59:17.794Z,21.02
2022-12-17T22:01:47.918Z,23.02
2022-12-17T22:04:16.145Z,26.80
2022-12-17T22:06:46.904Z,18.58
2022-12-17T22:09:31.680Z,20.85
2022-12-17T22:12:27.057Z,20.10
2022-12-17T22:14:56.317Z,22.70
2022-12-17T22:17:24.664Z,20.55
2022-12-17T22:19:52.517Z,17.90
2022-12-17T22:22:20.365Z,22.40
2022-12-17T22:24:48.179Z,16.88
2022-12-17T22:27:16.207Z,20.50
2022-12-17T22:30:01.607Z,22.55
2022-12-17T22:32:48.463Z,19.40
2022-12-17T22:38:18.336Z,18.52
2022-12-17T22:40:29.861Z,19.95
2022-12-17T22:44:34.797Z,16.90
2022-12-17T22:44:40.585Z,22.70
2022-12-17T22:46:30.065Z,20.42
2022-12-17T22:48:59.809Z,18.80
2022-12-17T22:51:30.013Z,17.50
2022-12-17T22:54:07.459Z,19.58
2022-12-17T22:57:31.284Z,19.73
2022-12-17T22:59:24.208Z,21.17
2022-12-17T23:01:52.123Z,19.83
2022-12-17T23:04:21.512Z,15.32
2022-12-17T23:06:49.616Z,20.13
2022-12-17T23:09:20.242Z,24.95
2022-12-17T23:11:49.531Z,24.65
2022-12-17T23:14:18.772Z,20.02
2022-12-17T23:16:46.999Z,19.58
2022-12-17T23:19:14.952Z,19.52
2022-12-17T23:21:44.351Z,23.55
2022-12-17T23:24:12.293Z,21.00
2022-12-17T23:26:40.626Z,21.02
2022-12-17T23:29:19.455Z,22.33
2022-12-17T23:31:48.312Z,20.02
2022-12-17T23:34:16.620Z,19.27
2022-12-17T23:36:46.317Z,15.20
2022-12-17T23:39:15.359Z,18.65
2022-12-17T23:41:43.480Z,19.63
2022-12-17T23:44:13.231Z,18.83
2022-12-17T23:46:41.264Z,19.23
2022-12-17T23:49:10.001Z,17.70
2022-12-17T23:51:37.917Z,17.35
2022-12-17T23:54:07.650Z,18.17
2022-12-17T23:56:36.784Z,22.13
2022-12-17T23:59:05.245Z,18.27
